createdAt,value
2019-05-18T00:02:03.981Z,14.77
2019-05-18T00:04:33.052Z,14.90
2019-05-18T00:07:02.099Z,14.43
2019-05-18T00:09:30.910Z,15.93
2019-05-18T00:11:59.690Z,15.00
2019-05-18T00:14:28.552Z,12.93
2019-05-18T00:16:57.514Z,15.30
2019-05-18T00:19:26.294Z,15.73
2019-05-18T00:21:55.041Z,14.40
2019-05-18T00:24:23.811Z,15.13
2019-05-18T00:26:52.613Z,14.30
2019-05-18T00:29:21.377Z,15.57
2019-05-18T00:31:50.130Z,15.53
2019-05-18T00:34:19.014Z,15.27
2019-05-18T00:36:47.794Z,14.65
2019-05-18T00:39:16.651Z,14.73
2019-05-18T00:41:45.683Z,15.30
2019-05-18T00:44:14.430Z,14.75
2019-05-18T00:46:43.204Z,15.27
2019-05-18T00:49:13.137Z,15.97
2019-05-18T00:51:41.921Z,16.50
2019-05-18T00:54:10.730Z,14.25
2019-05-18T00:56:39.602Z,16.23
2019-05-18T00:59:08.405Z,15.07
2019-05-18T01:01:37.386Z,17.33
2019-05-18T01:04:06.141Z,16.40
2019-05-18T01:06:34.905Z,15.70
2019-05-18T01:09:05.549Z,17.50
2019-05-18T01:11:34.394Z,17.37
2019-05-18T01:14:03.385Z,16.43
2019-05-18T01:16:32.141Z,15.15
2019-05-18T01:19:01.004Z,18.87
2019-05-18T01:21:29.757Z,17.37
2019-05-18T01:23:58.493Z,15.00
2019-05-18T01:26:27.320Z,16.60
2019-05-18T01:28:59.030Z,17.20
2019-05-18T01:31:27.791Z,17.73
2019-05-18T01:33:56.605Z,17.60
2019-05-18T01:36:25.380Z,16.40
2019-05-18T01:38:54.128Z,15.57
2019-05-18T01:41:23.009Z,16.07
2019-05-18T01:43:51.764Z,16.95
2019-05-18T01:46:21.381Z,16.87
2019-05-18T01:48:50.225Z,15.78
2019-05-18T01:51:19.579Z,16.15
2019-05-18T01:53:48.483Z,16.50
2019-05-18T01:56:17.243Z,18.83
2019-05-18T01:58:46.183Z,18.10
2019-05-18T02:01:15.057Z,18.67
2019-05-18T02:03:43.977Z,17.83
2019-05-18T02:06:12.903Z,16.37
2019-05-18T02:08:41.646Z,16.90
2019-05-18T02:11:10.416Z,18.10
2019-05-18T02:13:39.264Z,18.63
2019-05-18T02:16:08.020Z,20.15
2019-05-18T02:18:36.903Z,17.87
2019-05-18T02:21:05.998Z,19.17
2019-05-18T02:23:34.758Z,19.73
2019-05-18T02:26:05.892Z,18.17
2019-05-18T02:28:34.739Z,20.70
2019-05-18T02:31:03.744Z,18.80
2019-05-18T02:33:32.492Z,20.33
2019-05-18T02:36:01.322Z,18.77
2019-05-18T02:38:30.122Z,18.73
2019-05-18T02:40:58.894Z,19.10
2019-05-18T02:43:27.684Z,19.20
2019-05-18T02:45:56.802Z,19.23
2019-05-18T02:48:25.569Z,19.17
2019-05-18T02:50:54.353Z,20.70
2019-05-18T02:53:23.248Z,23.20
2019-05-18T02:55:52.028Z,22.30
2019-05-18T02:58:20.907Z,19.97
2019-05-18T03:00:49.710Z,21.83
2019-05-18T03:03:18.537Z,22.77
2019-05-18T03:05:47.515Z,21.33
2019-05-18T03:08:16.264Z,21.47
2019-05-18T03:10:45.380Z,22.40
2019-05-18T03:13:14.297Z,22.83
2019-05-18T03:15:43.075Z,22.40
2019-05-18T03:18:11.951Z,21.68
2019-05-18T03:20:40.870Z,20.57
2019-05-18T03:23:09.625Z,18.03
2019-05-18T03:25:38.378Z,23.07
2019-05-18T03:28:07.214Z,20.95
2019-05-18T03:30:36.039Z,21.53
2019-05-18T03:33:05.498Z,20.10
2019-05-18T03:35:36.326Z,21.10
2019-05-18T03:38:05.938Z,24.07
2019-05-18T03:40:37.050Z,22.53
2019-05-18T03:43:06.621Z,20.60
2019-05-18T03:45:35.455Z,21.30
2019-05-18T03:48:05.261Z,20.23
2019-05-18T03:50:34.302Z,21.50
2019-05-18T03:53:04.255Z,22.33
2019-05-18T03:55:33.195Z,21.60
2019-05-18T03:58:01.959Z,21.93
2019-05-18T04:00:30.719Z,20.87
2019-05-18T04:03:00.391Z,21.70
2019-05-18T04:05:29.126Z,21.87
2019-05-18T04:07:58.053Z,23.38
2019-05-18T04:10:27.909Z,21.77
2019-05-18T04:12:56.636Z,21.13
2019-05-18T04:15:25.599Z,23.17
2019-05-18T04:17:54.340Z,21.77
2019-05-18T04:20:23.098Z,21.27
2019-05-18T04:22:51.941Z,19.90
2019-05-18T04:25:20.691Z,21.82
2019-05-18T04:27:49.604Z,21.90
2019-05-18T04:30:18.360Z,21.80
2019-05-18T04:32:47.139Z,20.87
2019-05-18T04:35:16.046Z,20.12
2019-05-18T04:37:44.786Z,20.07
2019-05-18T04:40:14.845Z,17.17
2019-05-18T04:42:43.593Z,16.77
2019-05-18T04:45:13.040Z,17.37
2019-05-18T04:47:41.834Z,17.30
2019-05-18T04:50:10.687Z,14.73
2019-05-18T04:52:39.486Z,16.00
2019-05-18T04:55:08.819Z,17.00
2019-05-18T04:57:37.626Z,16.50
2019-05-18T05:00:08.853Z,18.03
2019-05-18T05:02:37.662Z,17.53
2019-05-18T05:05:08.093Z,17.83
2019-05-18T05:07:36.936Z,18.40
2019-05-18T05:10:07.359Z,18.63
2019-05-18T05:12:36.111Z,19.20
2019-05-18T05:15:06.804Z,17.77
2019-05-18T05:17:35.634Z,18.90
2019-05-18T05:22:40.862Z,18.40
2019-05-18T05:25:10.025Z,20.48
2019-05-18T05:27:38.781Z,20.63
2019-05-18T05:30:12.114Z,19.47
2019-05-18T05:32:41.204Z,19.10
2019-05-18T05:35:10.445Z,17.87
2019-05-18T05:37:39.487Z,20.40
2019-05-18T05:40:08.468Z,18.70
2019-05-18T05:42:37.514Z,19.37
2019-05-18T05:45:08.158Z,18.13
2019-05-18T05:47:36.989Z,18.13
2019-05-18T05:50:10.094Z,21.13
2019-05-18T05:52:39.113Z,19.47
2019-05-18T05:55:10.005Z,20.23
2019-05-18T05:57:39.210Z,19.17
2019-05-18T06:00:10.559Z,19.60
2019-05-18T06:02:39.685Z,18.33
2019-05-18T06:05:09.490Z,19.97
2019-05-18T06:07:38.318Z,20.30
2019-05-18T06:10:08.170Z,19.60
2019-05-18T06:12:37.019Z,20.43
2019-05-18T06:15:08.462Z,18.43
2019-05-18T06:17:37.255Z,18.60
2019-05-18T06:20:08.430Z,18.57
2019-05-18T06:22:37.254Z,18.50
2019-05-18T06:25:07.402Z,20.70
2019-05-18T06:27:36.422Z,19.53
2019-05-18T06:30:08.495Z,18.73
2019-05-18T06:32:37.402Z,18.13
2019-05-18T06:35:06.313Z,18.80
2019-05-18T06:37:35.084Z,18.27
2019-05-18T06:40:05.605Z,17.97
2019-05-18T06:42:35.029Z,17.70
2019-05-18T06:45:06.629Z,19.20
2019-05-18T06:47:37.937Z,18.50
2019-05-18T06:50:12.765Z,18.00
2019-05-18T06:52:42.617Z,18.77
2019-05-18T06:55:17.211Z,17.90
2019-05-18T06:57:46.085Z,19.33
2019-05-18T07:00:16.938Z,18.33
2019-05-18T07:02:45.913Z,17.00
2019-05-18T07:05:14.932Z,17.23
2019-05-18T07:07:43.978Z,17.40
2019-05-18T07:10:13.069Z,18.10
2019-05-18T07:12:42.267Z,18.70
2019-05-18T07:15:11.848Z,20.07
2019-05-18T07:17:40.557Z,18.10
2019-05-18T07:20:09.660Z,18.67
2019-05-18T07:22:38.541Z,17.57
2019-05-18T07:25:08.902Z,17.53
2019-05-18T07:27:37.719Z,15.60
2019-05-18T07:30:11.938Z,15.43
2019-05-18T07:32:40.889Z,16.73
2019-05-18T07:35:11.939Z,17.17
2019-05-18T07:37:40.798Z,16.40
2019-05-18T07:40:09.973Z,16.10
2019-05-18T07:42:40.389Z,17.87
2019-05-18T07:45:10.405Z,16.80
2019-05-18T07:47:39.376Z,15.73
2019-05-18T07:50:08.450Z,16.10
2019-05-18T07:52:37.451Z,16.00
2019-05-18T07:55:08.098Z,16.07
2019-05-18T07:57:36.891Z,15.77
2019-05-18T08:00:10.395Z,18.20
2019-05-18T08:02:39.216Z,15.63
2019-05-18T08:05:09.309Z,16.80
2019-05-18T08:07:38.168Z,15.83
2019-05-18T08:10:08.594Z,14.30
2019-05-18T08:12:37.434Z,14.47
2019-05-18T08:15:12.100Z,14.60
2019-05-18T08:17:41.061Z,15.10
2019-05-18T08:20:10.151Z,14.78
2019-05-18T08:22:38.908Z,14.50
2019-05-18T08:25:09.131Z,14.10
2019-05-18T08:27:38.033Z,13.50
2019-05-18T08:30:08.835Z,14.57
2019-05-18T08:32:38.478Z,12.33
2019-05-18T08:35:12.118Z,13.63
2019-05-18T08:37:41.369Z,11.90
2019-05-18T08:40:12.090Z,11.93
2019-05-18T08:42:40.979Z,13.00
2019-05-18T08:45:11.008Z,12.10
2019-05-18T08:47:39.958Z,11.30
2019-05-18T08:50:09.934Z,10.60
2019-05-18T08:52:38.848Z,10.83
2019-05-18T08:55:09.862Z,11.53
2019-05-18T08:57:39.211Z,10.80
2019-05-18T09:00:10.137Z,9.60
2019-05-18T09:02:38.999Z,7.73
2019-05-18T09:05:07.998Z,8.27
2019-05-18T09:07:36.871Z,5.67
2019-05-18T09:10:10.054Z,8.10
2019-05-18T09:12:38.973Z,7.00
2019-05-18T09:15:09.089Z,7.60
2019-05-18T09:17:38.165Z,7.33
2019-05-18T09:20:09.733Z,7.00
2019-05-18T09:22:38.793Z,8.87
2019-05-18T09:25:08.447Z,7.63
2019-05-18T09:27:37.361Z,7.80
2019-05-18T09:30:16.446Z,7.83
2019-05-18T09:32:59.209Z,8.53
2019-05-18T09:35:28.633Z,8.37
2019-05-18T09:37:59.803Z,9.63
2019-05-18T09:40:28.334Z,7.93
2019-05-18T09:42:57.347Z,7.03
2019-05-18T09:45:26.252Z,7.70
2019-05-18T09:47:55.371Z,7.77
2019-05-18T09:50:24.529Z,7.00
2019-05-18T09:52:53.556Z,7.20
2019-05-18T09:55:22.509Z,7.23
2019-05-18T09:57:51.539Z,6.80
2019-05-18T10:00:22.228Z,6.70
2019-05-18T10:02:53.175Z,5.73
2019-05-18T10:05:22.170Z,7.40
2019-05-18T10:07:51.053Z,7.97
2019-05-18T10:10:20.153Z,8.07
2019-05-18T10:12:49.488Z,7.77
2019-05-18T10:15:19.014Z,8.00
2019-05-18T10:17:51.471Z,8.47
2019-05-18T10:20:20.795Z,8.33
2019-05-18T10:22:59.219Z,8.17
2019-05-18T10:25:21.810Z,8.40
2019-05-18T10:27:50.745Z,7.73
2019-05-18T10:30:21.341Z,8.27
2019-05-18T10:32:50.288Z,7.67
2019-05-18T10:35:19.186Z,7.40
2019-05-18T10:37:54.394Z,7.23
2019-05-18T10:40:23.189Z,7.70
2019-05-18T10:42:52.359Z,9.23
2019-05-18T10:45:25.657Z,8.90
2019-05-18T10:47:55.329Z,8.53
2019-05-18T10:50:27.868Z,9.17
2019-05-18T10:52:56.713Z,8.63
2019-05-18T10:55:26.073Z,7.67
2019-05-18T10:57:56.621Z,10.10
2019-05-18T11:00:25.379Z,8.50
2019-05-18T11:02:54.277Z,8.93
2019-05-18T11:05:26.162Z,9.43
2019-05-18T11:07:55.161Z,9.50
2019-05-18T11:10:27.046Z,9.70
2019-05-18T11:12:56.060Z,10.17
2019-05-18T11:15:25.100Z,8.00
2019-05-18T11:17:53.899Z,9.27
2019-05-18T11:20:22.962Z,9.65
2019-05-18T11:22:51.858Z,7.83
2019-05-18T11:25:21.540Z,8.90
2019-05-18T11:27:50.440Z,8.05
2019-05-18T11:30:20.625Z,7.50
2019-05-18T11:32:49.599Z,7.57
2019-05-18T11:35:19.930Z,9.03
2019-05-18T11:37:48.738Z,9.07
2019-05-18T11:40:18.636Z,9.90
2019-05-18T11:42:47.601Z,8.50
2019-05-18T11:45:18.980Z,9.50
2019-05-18T11:47:47.905Z,9.67
2019-05-18T11:50:18.110Z,9.60
2019-05-18T11:52:46.895Z,8.83
2019-05-18T11:55:16.130Z,9.13
2019-05-18T11:57:44.949Z,10.10
2019-05-18T12:00:15.866Z,10.80
2019-05-18T12:02:44.759Z,9.87
2019-05-18T12:05:15.949Z,10.53
2019-05-18T12:07:44.736Z,9.30
2019-05-18T12:10:13.832Z,9.73
2019-05-18T12:12:42.709Z,8.90
2019-05-18T12:15:13.929Z,8.03
2019-05-18T12:17:42.729Z,8.60
2019-05-18T12:20:13.024Z,6.53
2019-05-18T12:22:41.877Z,8.40
2019-05-18T12:25:10.917Z,7.45
2019-05-18T12:27:40.078Z,7.73
2019-05-18T12:30:13.386Z,6.83
2019-05-18T12:32:42.307Z,6.30
2019-05-18T12:35:12.100Z,7.43
2019-05-18T12:37:41.024Z,6.53
2019-05-18T12:40:12.770Z,6.23
2019-05-18T12:42:41.620Z,8.80
2019-05-18T12:45:11.160Z,7.80
2019-05-18T12:47:40.018Z,7.93
2019-05-18T12:50:11.258Z,6.70
2019-05-18T12:52:40.127Z,6.50
2019-05-18T12:55:11.305Z,4.87
2019-05-18T12:57:40.299Z,6.10
2019-05-18T13:00:11.432Z,6.90
2019-05-18T13:02:41.036Z,5.23
2019-05-18T13:05:12.269Z,4.37
2019-05-18T13:07:41.669Z,5.40
2019-05-18T13:10:12.338Z,4.50
2019-05-18T13:12:41.129Z,4.27
2019-05-18T13:15:12.782Z,5.35
2019-05-18T13:17:41.892Z,4.30
2019-05-18T13:20:12.980Z,4.90
2019-05-18T13:22:41.934Z,4.67
2019-05-18T13:25:13.251Z,4.45
2019-05-18T13:27:42.072Z,4.30
2019-05-18T13:30:13.324Z,4.43
2019-05-18T13:32:42.233Z,3.90
2019-05-18T13:35:13.141Z,4.55
2019-05-18T13:37:42.203Z,4.90
2019-05-18T13:40:15.708Z,5.15
2019-05-18T13:42:44.779Z,4.57
2019-05-18T13:45:17.256Z,4.60
2019-05-18T13:47:46.164Z,4.40
2019-05-18T13:50:16.082Z,4.30
2019-05-18T13:52:44.995Z,3.60
2019-05-18T13:55:14.188Z,5.20
2019-05-18T13:57:43.018Z,4.97
2019-05-18T14:00:11.992Z,4.77
2019-05-18T14:02:40.827Z,5.57
2019-05-18T14:05:10.781Z,5.23
2019-05-18T14:07:39.874Z,5.80
2019-05-18T14:10:12.653Z,5.73
2019-05-18T14:12:41.215Z,5.20
2019-05-18T14:15:11.790Z,5.92
2019-05-18T14:17:40.757Z,5.07
2019-05-18T14:20:10.831Z,4.57
2019-05-18T14:22:39.750Z,4.80
2019-05-18T14:25:19.508Z,5.30
2019-05-18T14:27:41.893Z,4.43
2019-05-18T14:30:12.935Z,4.60
2019-05-18T14:32:42.201Z,4.13
2019-05-18T14:35:11.069Z,4.80
2019-05-18T14:37:39.997Z,4.80
2019-05-18T14:40:08.959Z,4.47
2019-05-18T14:42:37.775Z,3.97
2019-05-18T14:45:09.944Z,4.60
2019-05-18T14:47:38.786Z,4.80
2019-05-18T14:50:07.898Z,5.50
2019-05-18T14:52:36.859Z,4.67
2019-05-18T14:55:08.569Z,4.63
2019-05-18T14:57:37.570Z,5.70
2019-05-18T15:00:08.445Z,4.20
2019-05-18T15:02:37.483Z,4.70
2019-05-18T15:05:10.864Z,4.67
2019-05-18T15:07:39.627Z,3.77
2019-05-18T15:10:10.377Z,4.00
2019-05-18T15:12:39.175Z,4.47
2019-05-18T15:15:10.114Z,3.93
2019-05-18T15:17:41.820Z,4.20
2019-05-18T15:20:11.169Z,3.60
2019-05-18T15:22:39.937Z,4.50
2019-05-18T15:25:09.101Z,4.27
2019-05-18T15:27:37.913Z,4.73
2019-05-18T15:30:08.441Z,4.00
2019-05-18T15:32:37.245Z,4.30
2019-05-18T15:35:10.879Z,4.30
2019-05-18T15:37:43.186Z,3.60
2019-05-18T15:40:11.226Z,4.20
2019-05-18T15:42:40.077Z,4.70
2019-05-18T15:45:09.400Z,4.23
2019-05-18T15:47:38.344Z,4.57
2019-05-18T15:50:07.500Z,4.50
2019-05-18T15:52:36.395Z,4.77
2019-05-18T15:55:08.547Z,4.57
2019-05-18T15:57:37.446Z,4.40
2019-05-18T16:00:11.443Z,4.70
2019-05-18T16:02:40.308Z,4.97
2019-05-18T16:05:10.321Z,4.10
2019-05-18T16:07:39.533Z,5.00
2019-05-18T16:10:14.136Z,5.70
2019-05-18T16:12:44.541Z,4.20
2019-05-18T16:15:14.670Z,5.10
2019-05-18T16:17:43.554Z,4.07
2019-05-18T16:20:12.638Z,4.37
2019-05-18T16:22:44.412Z,4.07
2019-05-18T16:25:12.567Z,4.47
2019-05-18T16:27:41.599Z,4.27
2019-05-18T16:30:11.604Z,4.10
2019-05-18T16:32:40.493Z,4.67
2019-05-18T16:35:09.673Z,4.33
2019-05-18T16:37:38.462Z,3.90
2019-05-18T16:40:09.814Z,4.57
2019-05-18T16:42:38.613Z,4.67
2019-05-18T16:45:09.697Z,4.67
2019-05-18T16:47:38.594Z,12.47
2019-05-18T16:50:08.549Z,14.00
2019-05-18T16:52:37.437Z,5.13
2019-05-18T16:55:10.715Z,4.83
2019-05-18T16:57:39.470Z,5.67
2019-05-18T17:00:15.953Z,18.20
2019-05-18T17:02:43.349Z,9.20
2019-05-18T17:05:16.780Z,6.30
2019-05-18T17:07:45.948Z,4.33
2019-05-18T17:10:15.994Z,4.10
2019-05-18T17:12:44.752Z,4.53
2019-05-18T17:15:13.711Z,4.53
2019-05-18T17:17:42.689Z,4.37
2019-05-18T17:20:12.323Z,4.65
2019-05-18T17:22:41.820Z,4.73
2019-05-18T17:25:11.032Z,4.60
2019-05-18T17:27:40.836Z,4.70
2019-05-18T17:30:10.262Z,4.20
2019-05-18T17:32:39.653Z,3.67
2019-05-18T17:35:10.108Z,4.00
2019-05-18T17:37:39.258Z,4.50
2019-05-18T17:40:08.760Z,4.23
2019-05-18T17:42:37.614Z,5.13
2019-05-18T17:45:09.057Z,3.90
2019-05-18T17:47:37.880Z,4.70
2019-05-18T17:50:08.883Z,4.50
2019-05-18T17:52:38.088Z,5.10
2019-05-18T17:55:08.040Z,4.40
2019-05-18T17:57:37.534Z,4.13
2019-05-18T18:00:09.146Z,4.17
2019-05-18T18:02:38.089Z,3.97
2019-05-18T18:05:09.307Z,4.00
2019-05-18T18:07:38.885Z,4.07
2019-05-18T18:10:08.992Z,3.67
2019-05-18T18:12:38.175Z,3.47
2019-05-18T18:15:09.449Z,4.50
2019-05-18T18:17:38.329Z,3.90
2019-05-18T18:20:08.172Z,4.80
2019-05-18T18:22:38.520Z,3.00
2019-05-18T18:25:08.464Z,4.00
2019-05-18T18:27:37.284Z,3.83
2019-05-18T18:30:08.327Z,3.93
2019-05-18T18:32:37.205Z,3.30
2019-05-18T18:35:08.929Z,3.60
2019-05-18T18:37:37.929Z,3.70
2019-05-18T18:40:08.563Z,4.10
2019-05-18T18:42:37.471Z,2.90
2019-05-18T18:45:09.035Z,3.30
2019-05-18T18:47:37.923Z,2.90
2019-05-18T18:50:07.073Z,3.23
2019-05-18T18:52:36.340Z,3.40
2019-05-18T18:55:08.855Z,3.50
2019-05-18T18:57:41.859Z,3.60
2019-05-18T19:00:10.735Z,3.53
2019-05-18T19:02:39.516Z,3.70
2019-05-18T19:05:12.231Z,3.77
2019-05-18T19:07:44.040Z,3.83
2019-05-18T19:10:16.233Z,3.47
2019-05-18T19:12:45.759Z,3.77
2019-05-18T19:15:16.311Z,4.00
2019-05-18T19:17:45.578Z,4.63
2019-05-18T19:20:18.006Z,3.87
2019-05-18T19:22:57.401Z,4.30
2019-05-18T19:25:31.126Z,4.50
2019-05-18T19:28:06.906Z,4.60
2019-05-18T19:30:37.035Z,4.20
2019-05-18T19:33:08.167Z,4.20
2019-05-18T19:35:37.241Z,3.72
2019-05-18T19:38:06.258Z,4.60
2019-05-18T19:40:35.113Z,3.83
2019-05-18T19:43:03.889Z,3.57
2019-05-18T19:45:33.368Z,4.90
2019-05-18T19:48:02.832Z,4.97
2019-05-18T19:50:32.141Z,4.10
2019-05-18T19:53:02.094Z,4.50
2019-05-18T19:55:31.107Z,4.60
2019-05-18T19:58:08.433Z,4.57
2019-05-18T20:00:30.616Z,4.40
2019-05-18T20:02:59.941Z,4.90
2019-05-18T20:05:29.018Z,5.30
2019-05-18T20:07:57.796Z,5.07
2019-05-18T20:10:26.639Z,4.93
2019-05-18T20:12:56.065Z,5.50
2019-05-18T20:15:24.867Z,7.10
2019-05-18T20:17:54.398Z,5.93
2019-05-18T20:20:23.531Z,5.77
2019-05-18T20:22:52.269Z,5.23
2019-05-18T20:25:21.390Z,5.37
2019-05-18T20:27:50.140Z,5.57
2019-05-18T20:30:19.111Z,4.87
2019-05-18T20:32:48.097Z,6.20
2019-05-18T20:35:18.154Z,6.05
2019-05-18T20:37:47.054Z,7.33
2019-05-18T20:40:15.806Z,5.90
2019-05-18T20:42:44.667Z,7.63
2019-05-18T20:45:13.565Z,6.43
2019-05-18T20:47:42.401Z,7.20
2019-05-18T20:50:11.308Z,6.78
2019-05-18T20:52:40.232Z,6.80
2019-05-18T20:55:09.202Z,6.93
2019-05-18T20:57:37.984Z,7.07
2019-05-18T21:00:08.169Z,7.20
2019-05-18T21:02:40.696Z,6.97
2019-05-18T21:05:15.043Z,8.00
2019-05-18T21:07:45.410Z,7.13
2019-05-18T21:10:14.353Z,7.45
2019-05-18T21:12:44.102Z,7.80
2019-05-18T21:15:14.369Z,8.23
2019-05-18T21:17:43.233Z,9.03
2019-05-18T21:20:12.282Z,9.07
2019-05-18T21:22:41.049Z,9.90
2019-05-18T21:25:11.432Z,8.07
2019-05-18T21:27:40.179Z,9.20
2019-05-18T21:30:09.259Z,8.75
2019-05-18T21:32:39.502Z,9.43
2019-05-18T21:35:10.460Z,8.70
2019-05-18T21:37:42.317Z,9.00
2019-05-18T21:40:26.337Z,9.60
2019-05-18T21:42:58.576Z,9.83
2019-05-18T21:45:28.166Z,8.23
2019-05-18T21:47:57.028Z,7.67
2019-05-18T21:50:25.818Z,7.27
2019-05-18T21:52:54.645Z,7.20
2019-05-18T21:55:23.511Z,8.73
2019-05-18T21:57:52.521Z,8.37
2019-05-18T22:00:24.610Z,8.70
2019-05-18T22:02:53.446Z,8.87
2019-05-18T22:05:22.475Z,8.53
2019-05-18T22:07:51.235Z,8.90
2019-05-18T22:10:25.848Z,9.47
2019-05-18T22:12:50.838Z,9.53
2019-05-18T22:15:19.592Z,9.23
2019-05-18T22:18:04.904Z,9.60
2019-05-18T22:20:39.940Z,9.57
2019-05-18T22:23:06.916Z,9.03
2019-05-18T22:25:36.013Z,8.70
2019-05-18T22:28:05.163Z,8.77
2019-05-18T22:30:33.894Z,8.80
2019-05-18T22:33:02.733Z,9.27
2019-05-18T22:35:31.587Z,10.80
2019-05-18T22:38:00.442Z,9.53
2019-05-18T22:40:29.209Z,10.13
2019-05-18T22:42:58.927Z,9.43
2019-05-18T22:45:30.634Z,11.40
2019-05-18T22:47:59.998Z,10.90
2019-05-18T22:50:28.856Z,9.87
2019-05-18T22:52:57.605Z,11.03
2019-05-18T22:55:26.482Z,11.77
2019-05-18T22:57:55.243Z,12.00
2019-05-18T23:00:24.372Z,12.60
2019-05-18T23:02:53.142Z,14.50
2019-05-18T23:05:21.887Z,13.35
2019-05-18T23:07:50.726Z,12.70
2019-05-18T23:10:19.688Z,11.50
2019-05-18T23:12:48.463Z,11.70
2019-05-18T23:15:17.263Z,12.33
2019-05-18T23:17:45.935Z,12.10
2019-05-18T23:20:15.195Z,12.82
2019-05-18T23:22:43.990Z,12.43
2019-05-18T23:25:13.015Z,14.28
2019-05-18T23:27:41.916Z,14.93
2019-05-18T23:30:11.414Z,14.80
2019-05-18T23:32:40.167Z,14.30
2019-05-18T23:35:08.916Z,15.07
2019-05-18T23:37:37.877Z,14.37
2019-05-18T23:40:07.142Z,14.53
2019-05-18T23:42:35.954Z,15.10
2019-05-18T23:45:07.642Z,14.83
2019-05-18T23:47:36.529Z,14.30
2019-05-18T23:50:06.874Z,15.63
2019-05-18T23:52:35.738Z,14.00
2019-05-18T23:55:07.575Z,15.77
2019-05-18T23:57:36.508Z,14.77
